Airfield :
LOGIN :

Register | Disclaimer

   EN    FR    IT 

 










Legend :    VFR   Marginal VFR   IFR   Intensive IFR   Very Intensive IFR
Visi :
Ceiling :
>= 8 km
>= 3000ft
5 to 8 km
1000 to 3000 ft
1500m to 5 km
500 to 1000 ft
800 to 1500m
200 to 500 ft
< 800m
< 200 ft
Symbols :   Thunderstorms  Fog  Heavy snow  Heavy precipitations  Wind > 20 kt
SIGMETs :     Misc.  Thunderstorms  Icing  Turbulence  Mountain Waves  Volcanic Ashes







- Airport Elevation : 162 ft
- IATA code : BOD
- Download approach charts


LFBD - Bordeaux / Merignac

CURRENT METAR :
  • 270300Z AUTO VRB01KT CAVOK 02/M01 Q1018 NOSIG

EXPIRED METARs :
  • 270230Z AUTO VRB03KT CAVOK 02/M01 Q1017 NOSIG
  • 270200Z AUTO 01001KT CAVOK 03/M00 Q1017 NOSIG
  • 270130Z AUTO 02004KT CAVOK 03/00 Q1018 NOSIG
  • 270100Z AUTO 31001KT CAVOK 03/M00 Q1017 NOSIG
  • 270030Z AUTO 01002KT CAVOK 03/M00 Q1018 NOSIG

TAF TAF LFBD
Valid from the 27 at 00:00 until the 28 at 06:00 UTC


262300Z 2700/2806 02003KT CAVOK
BECMG 2709/2711 01012KT
PROB30
TEMPO 2711/2718 01015G25KT -SHRA BKN050TCU
BECMG 2719/2721 33005KT TX15/2715Z TN04/2705Z
ATIS : +33 5 57 92 81 04
No reported NOTAMs for that airfield.
2 SIGMETs reported for the Bordeaux FIR (LFBB) :
 
Severe turbulence
LFBB SIGMET 2 VALID 262300/270300 LFPW
LFBB BORDEAUX FIR/UIR SEV TURB FCST WI N4530 E00300 - N4400 W00100 - N4645 E00245 FL140/230 STNR NC=
Severe turbulence
LFBB SIGMET 1 VALID 270300/270700 LFPW
LFBB BORDEAUX FIR/UIR SEV TURB FCST WI N4630 E00300 - N4515 E00245 - N4415 E00030 - N4500 W00015 FL140/220 STNR NC=



MET'MAP, your aeronautical weather chart ! - Copyright ORBIFLY December 2007 - Disclaimer

ORBIFLY MET'MAP TEAM :

Programming & Development : Alexandra Zaïnal
Concept & Development : Baudouin d'Aumeries
Co-Development & Prog : Marc-Olivier Méhu
Technical & hardware support : Manuel Goepfert

Contact : metmap@orbifly.com




SOURCES & CREDITS :

   NOAA